sensor_id;sensor_type;location;lat;lon;timestamp;pressure;altitude;pressure_sealevel;temperature;humidity
73457;BME280;61691;53.072;6.582;2023-04-09T00:00:16;102733.84;;;9.47;72.33
73457;BME280;61691;53.072;6.582;2023-04-09T00:02:42;102730.78;;;9.39;72.55
73457;BME280;61691;53.072;6.582;2023-04-09T00:05:09;102711.25;;;9.24;72.43
73457;BME280;61691;53.072;6.582;2023-04-09T00:07:36;102710.41;;;9.24;72.70
73457;BME280;61691;53.072;6.582;2023-04-09T00:10:03;102726.72;;;9.32;72.75
73457;BME280;61691;53.072;6.582;2023-04-09T00:12:29;102729.19;;;9.35;72.69
73457;BME280;61691;53.072;6.582;2023-04-09T00:14:56;102736.34;;;9.33;73.24
73457;BME280;61691;53.072;6.582;2023-04-09T00:17:23;102730.31;;;9.31;72.78
73457;BME280;61691;53.072;6.582;2023-04-09T00:19:50;102698.50;;;9.15;72.96
73457;BME280;61691;53.072;6.582;2023-04-09T00:22:16;102738.25;;;9.31;73.13
73457;BME280;61691;53.072;6.582;2023-04-09T00:24:43;102727.97;;;9.25;73.02
73457;BME280;61691;53.072;6.582;2023-04-09T00:27:10;102727.97;;;9.25;72.98
73457;BME280;61691;53.072;6.582;2023-04-09T00:29:37;102725.50;;;9.22;72.95
73457;BME280;61691;53.072;6.582;2023-04-09T00:32:04;102717.88;;;9.16;73.27
73457;BME280;61691;53.072;6.582;2023-04-09T00:34:31;102724.50;;;9.24;73.25
73457;BME280;61691;53.072;6.582;2023-04-09T00:36:58;102719.41;;;9.20;73.46
73457;BME280;61691;53.072;6.582;2023-04-09T00:39:24;102714.97;;;9.20;73.38
73457;BME280;61691;53.072;6.582;2023-04-09T00:41:59;102720.81;;;9.27;73.70
73457;BME280;61691;53.072;6.582;2023-04-09T00:44:28;102708.22;;;9.15;73.40
73457;BME280;61691;53.072;6.582;2023-04-09T00:46:54;102719.88;;;9.28;73.29
73457;BME280;61691;53.072;6.582;2023-04-09T00:49:21;102717.56;;;9.22;73.48
73457;BME280;61691;53.072;6.582;2023-04-09T00:51:51;102706.06;;;9.06;73.80
73457;BME280;61691;53.072;6.582;2023-04-09T00:54:18;102724.88;;;9.17;73.67
73457;BME280;61691;53.072;6.582;2023-04-09T00:56:45;102723.25;;;9.14;73.39
73457;BME280;61691;53.072;6.582;2023-04-09T00:59:12;102709.81;;;9.02;73.34
73457;BME280;61691;53.072;6.582;2023-04-09T01:01:39;102728.47;;;9.16;73.38
73457;BME280;61691;53.072;6.582;2023-04-09T01:04:06;102699.03;;;9.05;73.75
73457;BME280;61691;53.072;6.582;2023-04-09T01:06:42;102706.06;;;9.06;73.85
73457;BME280;61691;53.072;6.582;2023-04-09T01:09:41;102714.38;;;9.15;73.86
73457;BME280;61691;53.072;6.582;2023-04-09T01:12:24;102706.44;;;9.15;73.29
73457;BME280;61691;53.072;6.582;2023-04-09T01:15:04;102698.72;;;9.11;74.07
73457;BME280;61691;53.072;6.582;2023-04-09T01:17:42;102700.50;;;9.10;73.50
73457;BME280;61691;53.072;6.582;2023-04-09T01:20:19;102689.47;;;9.02;74.00
73457;BME280;61691;53.072;6.582;2023-04-09T01:28:44;102674.78;;;8.97;73.66
73457;BME280;61691;53.072;6.582;2023-04-09T01:31:16;102695.31;;;9.09;73.47
73457;BME280;61691;53.072;6.582;2023-04-09T01:33:44;102678.59;;;9.08;73.88
73457;BME280;61691;53.072;6.582;2023-04-09T01:36:12;102645.06;;;8.91;74.00
73457;BME280;61691;53.072;6.582;2023-04-09T01:38:41;102650.97;;;8.97;74.04
73457;BME280;61691;53.072;6.582;2023-04-09T01:41:10;102684.22;;;9.18;73.63
73457;BME280;61691;53.072;6.582;2023-04-09T01:43:37;102673.66;;;9.18;73.79
73457;BME280;61691;53.072;6.582;2023-04-09T01:46:05;102687.34;;;9.26;73.57
73457;BME280;61691;53.072;6.582;2023-04-09T01:48:33;102661.38;;;9.17;73.74
73457;BME280;61691;53.072;6.582;2023-04-09T01:51:00;102692.47;;;9.29;73.85
73457;BME280;61691;53.072;6.582;2023-04-09T01:53:27;102676.00;;;9.24;74.05
73457;BME280;61691;53.072;6.582;2023-04-09T01:55:54;102637.41;;;9.03;73.54
73457;BME280;61691;53.072;6.582;2023-04-09T01:58:23;102681.91;;;9.29;73.74
73457;BME280;61691;53.072;6.582;2023-04-09T02:00:52;102670.84;;;9.21;73.73
73457;BME280;61691;53.072;6.582;2023-04-09T02:03:24;102652.81;;;9.12;73.71
73457;BME280;61691;53.072;6.582;2023-04-09T02:06:06;102675.22;;;9.22;73.75
73457;BME280;61691;53.072;6.582;2023-04-09T02:08:35;102660.16;;;9.07;73.90
73457;BME280;61691;53.072;6.582;2023-04-09T02:11:04;102679.72;;;9.20;73.88
73457;BME280;61691;53.072;6.582;2023-04-09T02:13:32;102680.84;;;9.16;73.88
73457;BME280;61691;53.072;6.582;2023-04-09T02:16:01;102678.25;;;9.14;74.02
73457;BME280;61691;53.072;6.582;2023-04-09T02:18:29;102663.88;;;9.03;73.77
73457;BME280;61691;53.072;6.582;2023-04-09T02:20:57;102681.84;;;9.13;73.83
73457;BME280;61691;53.072;6.582;2023-04-09T02:23:24;102658.97;;;8.95;73.63
73457;BME280;61691;53.072;6.582;2023-04-09T02:25:52;102662.34;;;8.99;73.62
73457;BME280;61691;53.072;6.582;2023-04-09T02:28:19;102665.91;;;8.98;73.92
73457;BME280;61691;53.072;6.582;2023-04-09T02:30:46;102657.38;;;8.92;74.17
73457;BME280;61691;53.072;6.582;2023-04-09T02:33:13;102655.66;;;8.91;74.18
73457;BME280;61691;53.072;6.582;2023-04-09T02:35:39;102672.78;;;9.02;74.18
73457;BME280;61691;53.072;6.582;2023-04-09T02:38:08;102684.03;;;9.05;74.37
73457;BME280;61691;53.072;6.582;2023-04-09T02:40:39;102640.09;;;8.85;73.95
73457;BME280;61691;53.072;6.582;2023-04-09T02:43:07;102658.03;;;8.96;74.04
73457;BME280;61691;53.072;6.582;2023-04-09T02:45:35;102642.81;;;8.84;74.00
73457;BME280;61691;53.072;6.582;2023-04-09T02:48:01;102660.81;;;8.95;73.84
73457;BME280;61691;53.072;6.582;2023-04-09T02:50:28;102661.72;;;8.93;74.11
73457;BME280;61691;53.072;6.582;2023-04-09T02:52:55;102659.22;;;8.90;73.88
73457;BME280;61691;53.072;6.582;2023-04-09T02:55:25;102651.28;;;8.90;74.03
73457;BME280;61691;53.072;6.582;2023-04-09T02:57:51;102645.41;;;8.85;74.36
73457;BME280;61691;53.072;6.582;2023-04-09T03:00:18;102646.94;;;8.89;74.41
73457;BME280;61691;53.072;6.582;2023-04-09T03:02:45;102657.28;;;8.94;74.16
73457;BME280;61691;53.072;6.582;2023-04-09T03:05:12;102634.97;;;8.82;74.08
73457;BME280;61691;53.072;6.582;2023-04-09T03:07:38;102638.41;;;8.84;74.61
73457;BME280;61691;53.072;6.582;2023-04-09T03:10:05;102625.56;;;8.77;74.13
73457;BME280;61691;53.072;6.582;2023-04-09T03:12:32;102594.78;;;8.59;74.26
73457;BME280;61691;53.072;6.582;2023-04-09T03:14:59;102653.00;;;8.91;74.31
73457;BME280;61691;53.072;6.582;2023-04-09T03:17:25;102652.88;;;8.95;74.80
73457;BME280;61691;53.072;6.582;2023-04-09T03:19:52;102644.38;;;8.88;74.29
73457;BME280;61691;53.072;6.582;2023-04-09T03:22:19;102629.84;;;8.79;74.53
73457;BME280;61691;53.072;6.582;2023-04-09T03:24:46;102647.13;;;8.86;74.74
73457;BME280;61691;53.072;6.582;2023-04-09T03:27:12;102643.69;;;8.84;74.84
73457;BME280;61691;53.072;6.582;2023-04-09T03:29:39;102638.53;;;8.81;74.55
73457;BME280;61691;53.072;6.582;2023-04-09T03:32:06;102640.44;;;8.79;74.66
73457;BME280;61691;53.072;6.582;2023-04-09T03:34:32;102617.44;;;8.64;74.66
73457;BME280;61691;53.072;6.582;2023-04-09T03:36:59;102643.84;;;8.81;74.95
73457;BME280;61691;53.072;6.582;2023-04-09T03:39:26;102635.16;;;8.79;74.83
73457;BME280;61691;53.072;6.582;2023-04-09T03:41:56;102657.50;;;8.89;74.93
73457;BME280;61691;53.072;6.582;2023-04-09T03:44:24;102654.00;;;8.89;75.06
73457;BME280;61691;53.072;6.582;2023-04-09T03:46:50;102642.13;;;8.80;75.07
73457;BME280;61691;53.072;6.582;2023-04-09T03:49:17;102645.53;;;8.82;74.91
73457;BME280;61691;53.072;6.582;2023-04-09T03:51:44;102614.59;;;8.67;74.85
73457;BME280;61691;53.072;6.582;2023-04-09T03:54:11;102637.63;;;8.82;74.96
73457;BME280;61691;53.072;6.582;2023-04-09T03:56:37;102637.47;;;8.85;75.28
73457;BME280;61691;53.072;6.582;2023-04-09T03:59:04;102633.09;;;8.84;74.96
73457;BME280;61691;53.072;6.582;2023-04-09T04:01:31;102609.91;;;8.72;75.43
73457;BME280;61691;53.072;6.582;2023-04-09T04:03:59;102629.84;;;8.79;74.97
73457;BME280;61691;53.072;6.582;2023-04-09T04:06:26;102618.63;;;8.74;75.52
73457;BME280;61691;53.072;6.582;2023-04-09T04:08:53;102619.28;;;8.79;75.16
73457;BME280;61691;53.072;6.582;2023-04-09T04:11:20;102604.88;;;8.68;75.51
73457;BME280;61691;53.072;6.582;2023-04-09T04:13:46;102630.47;;;8.84;75.25
73457;BME280;61691;53.072;6.582;2023-04-09T04:16:13;102618.56;;;8.76;75.51
73457;BME280;61691;53.072;6.582;2023-04-09T04:18:40;102626.25;;;8.80;75.22
73457;BME280;61691;53.072;6.582;2023-04-09T04:21:12;102614.13;;;8.76;75.76
73457;BME280;61691;53.072;6.582;2023-04-09T04:23:39;102633.97;;;8.85;75.51
73457;BME280;61691;53.072;6.582;2023-04-09T04:26:09;102599.06;;;8.61;75.25
73457;BME280;61691;53.072;6.582;2023-04-09T04:28:36;102641.97;;;8.83;75.65
73457;BME280;61691;53.072;6.582;2023-04-09T04:31:10;102640.25;;;8.82;75.65
73457;BME280;61691;53.072;6.582;2023-04-09T04:33:38;102645.53;;;8.82;75.37
73457;BME280;61691;53.072;6.582;2023-04-09T04:36:10;102646.41;;;8.83;75.86
73457;BME280;61691;53.072;6.582;2023-04-09T04:38:38;102648.13;;;8.84;75.25
73457;BME280;61691;53.072;6.582;2023-04-09T04:41:06;102643.84;;;8.81;75.38
73457;BME280;61691;53.072;6.582;2023-04-09T04:43:33;102629.47;;;8.70;75.86
73457;BME280;61691;53.072;6.582;2023-04-09T04:46:00;102631.41;;;8.66;75.59
73457;BME280;61691;53.072;6.582;2023-04-09T04:48:27;102627.91;;;8.66;75.86
73457;BME280;61691;53.072;6.582;2023-04-09T04:50:58;102621.94;;;8.62;75.79
73457;BME280;61691;53.072;6.582;2023-04-09T04:53:25;102639.88;;;8.73;76.19
73457;BME280;61691;53.072;6.582;2023-04-09T04:55:52;102646.66;;;8.78;75.77
73457;BME280;61691;53.072;6.582;2023-04-09T04:58:19;102639.00;;;8.72;75.54
73457;BME280;61691;53.072;6.582;2023-04-09T05:00:46;102653.88;;;8.75;75.53
73457;BME280;61691;53.072;6.582;2023-04-09T05:03:13;102634.91;;;8.67;76.05
73457;BME280;61691;53.072;6.582;2023-04-09T05:05:40;102619.34;;;8.61;75.98
73457;BME280;61691;53.072;6.582;2023-04-09T05:08:07;102652.88;;;8.77;75.71
73457;BME280;61691;53.072;6.582;2023-04-09T05:10:33;102643.38;;;8.73;76.10
73457;BME280;61691;53.072;6.582;2023-04-09T05:13:00;102627.22;;;8.62;75.72
73457;BME280;61691;53.072;6.582;2023-04-09T05:15:27;102631.31;;;8.68;76.17
73457;BME280;61691;53.072;6.582;2023-04-09T05:17:54;102652.53;;;8.83;75.63
73457;BME280;61691;53.072;6.582;2023-04-09T05:20:21;102648.44;;;8.78;76.00
73457;BME280;61691;53.072;6.582;2023-04-09T05:22:47;102611.66;;;8.56;75.64
73457;BME280;61691;53.072;6.582;2023-04-09T05:25:14;102623.78;;;8.60;76.00
73457;BME280;61691;53.072;6.582;2023-04-09T05:27:42;102615.94;;;8.59;75.93
73457;BME280;61691;53.072;6.582;2023-04-09T05:30:09;102663.28;;;8.80;75.58
73457;BME280;61691;53.072;6.582;2023-04-09T05:32:36;102650.38;;;8.74;75.76
73457;BME280;61691;53.072;6.582;2023-04-09T05:35:03;102618.81;;;8.54;75.89
73457;BME280;61691;53.072;6.582;2023-04-09T05:37:30;102658.31;;;8.74;75.75
73457;BME280;61691;53.072;6.582;2023-04-09T05:39:57;102656.44;;;8.76;75.90
73457;BME280;61691;53.072;6.582;2023-04-09T05:42:23;102638.19;;;8.72;75.92
73457;BME280;61691;53.072;6.582;2023-04-09T05:44:50;102633.91;;;8.69;76.02
73457;BME280;61691;53.072;6.582;2023-04-09T05:47:17;102644.88;;;8.79;75.45
73457;BME280;61691;53.072;6.582;2023-04-09T05:49:43;102645.72;;;8.79;75.37
73457;BME280;61691;53.072;6.582;2023-04-09T05:52:10;102633.97;;;8.68;75.35
73457;BME280;61691;53.072;6.582;2023-04-09T05:54:37;102570.75;;;8.29;75.35
73457;BME280;61691;53.072;6.582;2023-04-09T05:57:03;102624.50;;;8.64;75.37
73457;BME280;61691;53.072;6.582;2023-04-09T05:59:30;102643.22;;;8.76;75.49
73457;BME280;61691;53.072;6.582;2023-04-09T06:01:57;102570.38;;;8.36;75.30
73457;BME280;61691;53.072;6.582;2023-04-09T06:04:23;102645.72;;;8.79;75.17
73457;BME280;61691;53.072;6.582;2023-04-09T06:06:51;102631.00;;;8.74;75.16
73457;BME280;61691;53.072;6.582;2023-04-09T06:09:17;102642.97;;;8.81;74.71
73457;BME280;61691;53.072;6.582;2023-04-09T06:11:44;102640.31;;;8.81;74.91
73457;BME280;61691;53.072;6.582;2023-04-09T06:14:11;102607.78;;;8.63;74.73
73457;BME280;61691;53.072;6.582;2023-04-09T06:16:41;102662.88;;;8.88;74.71
73457;BME280;61691;53.072;6.582;2023-04-09T06:19:08;102653.34;;;8.85;75.00
73457;BME280;61691;53.072;6.582;2023-04-09T06:21:35;102664.84;;;8.84;74.58
73457;BME280;61691;53.072;6.582;2023-04-09T06:24:02;102671.59;;;8.90;74.90
73457;BME280;61691;53.072;6.582;2023-04-09T06:26:28;102645.94;;;8.75;74.61
73457;BME280;61691;53.072;6.582;2023-04-09T06:28:55;102660.47;;;8.83;74.45
73457;BME280;61691;53.072;6.582;2023-04-09T06:31:22;102662.97;;;8.86;74.78
73457;BME280;61691;53.072;6.582;2023-04-09T06:33:48;102659.63;;;8.83;74.23
73457;BME280;61691;53.072;6.582;2023-04-09T06:36:15;102652.41;;;8.86;74.30
73457;BME280;61691;53.072;6.582;2023-04-09T06:38:42;102635.28;;;8.76;74.45
73457;BME280;61691;53.072;6.582;2023-04-09T06:41:09;102660.16;;;8.89;74.22
73457;BME280;61691;53.072;6.582;2023-04-09T06:43:38;102647.88;;;8.88;73.40
73457;BME280;61691;53.072;6.582;2023-04-09T06:46:04;102633.44;;;8.78;73.63
73457;BME280;61691;53.072;6.582;2023-04-09T06:48:31;102663.34;;;8.96;73.26
73457;BME280;61691;53.072;6.582;2023-04-09T06:50:58;102648.56;;;8.92;73.35
73457;BME280;61691;53.072;6.582;2023-04-09T06:53:24;102648.31;;;8.97;73.28
73457;BME280;61691;53.072;6.582;2023-04-09T06:55:51;102608.69;;;8.79;73.08
73457;BME280;61691;53.072;6.582;2023-04-09T06:58:20;102656.38;;;9.11;72.88
73457;BME280;61691;53.072;6.582;2023-04-09T07:00:47;102661.38;;;9.17;72.67
73457;BME280;61691;53.072;6.582;2023-04-09T07:03:14;102654.19;;;9.19;72.11
73457;BME280;61691;53.072;6.582;2023-04-09T07:05:41;102661.19;;;9.20;72.29
73457;BME280;61691;53.072;6.582;2023-04-09T07:08:07;102636.94;;;9.12;71.96
73457;BME280;61691;53.072;6.582;2023-04-09T07:10:34;102666.16;;;9.26;72.01
73457;BME280;61691;53.072;6.582;2023-04-09T07:13:01;102657.47;;;9.24;72.32
73457;BME280;61691;53.072;6.582;2023-04-09T07:15:28;102625.69;;;9.08;72.08
73457;BME280;61691;53.072;6.582;2023-04-09T07:17:55;102663.28;;;9.30;71.71
73457;BME280;61691;53.072;6.582;2023-04-09T07:20:23;102669.19;;;9.36;71.76
73457;BME280;61691;53.072;6.582;2023-04-09T07:22:50;102666.00;;;9.29;71.77
73457;BME280;61691;53.072;6.582;2023-04-09T07:25:16;102626.53;;;9.09;71.82
73457;BME280;61691;53.072;6.582;2023-04-09T07:27:43;102667.13;;;9.41;71.59
73457;BME280;61691;53.072;6.582;2023-04-09T07:30:10;102672.03;;;9.48;71.99
73457;BME280;61691;53.072;6.582;2023-04-09T07:32:37;102688.97;;;9.61;71.86
73457;BME280;61691;53.072;6.582;2023-04-09T07:35:06;102672.91;;;9.64;71.71
73457;BME280;61691;53.072;6.582;2023-04-09T07:37:33;102658.31;;;9.73;71.27
73457;BME280;61691;53.072;6.582;2023-04-09T07:40:00;102680.94;;;10.10;71.87
73457;BME280;61691;53.072;6.582;2023-04-09T07:42:27;102674.91;;;10.54;71.91
73457;BME280;61691;53.072;6.582;2023-04-09T07:44:53;102648.13;;;10.88;70.93
73457;BME280;61691;53.072;6.582;2023-04-09T07:47:21;102664.72;;;11.06;69.33
73457;BME280;61691;53.072;6.582;2023-04-09T07:49:48;102668.59;;;11.00;68.70
73457;BME280;61691;53.072;6.582;2023-04-09T07:52:15;102661.56;;;10.85;68.43
73457;BME280;61691;53.072;6.582;2023-04-09T07:54:42;102603.28;;;10.39;67.91
73457;BME280;61691;53.072;6.582;2023-04-09T07:57:09;102653.84;;;10.66;67.69
73457;BME280;61691;53.072;6.582;2023-04-09T07:59:36;102640.66;;;10.51;67.74
73457;BME280;61691;53.072;6.582;2023-04-09T08:02:03;102657.13;;;10.56;67.84
73457;BME280;61691;53.072;6.582;2023-04-09T08:04:30;102627.50;;;10.33;67.76
73457;BME280;61691;53.072;6.582;2023-04-09T08:06:57;102650.66;;;10.45;68.06
73457;BME280;61691;53.072;6.582;2023-04-09T08:09:24;102662.25;;;10.59;67.79
73457;BME280;61691;53.072;6.582;2023-04-09T08:11:50;102663.41;;;10.69;67.91
73457;BME280;61691;53.072;6.582;2023-04-09T08:14:17;102649.91;;;10.73;67.97
73457;BME280;61691;53.072;6.582;2023-04-09T08:16:45;102642.03;;;10.86;67.10
73457;BME280;61691;53.072;6.582;2023-04-09T08:19:14;102667.59;;;11.31;67.31
73457;BME280;61691;53.072;6.582;2023-04-09T08:21:42;102672.63;;;11.50;66.79
73457;BME280;61691;53.072;6.582;2023-04-09T08:24:12;102662.56;;;11.55;66.24
73457;BME280;61691;53.072;6.582;2023-04-09T08:26:39;102673.53;;;11.91;65.83
73457;BME280;61691;53.072;6.582;2023-04-09T08:29:07;102658.84;;;12.13;65.45
73457;BME280;61691;53.072;6.582;2023-04-09T08:31:34;102674.06;;;12.50;65.55
73457;BME280;61691;53.072;6.582;2023-04-09T08:34:05;102655.69;;;12.47;64.13
73457;BME280;61691;53.072;6.582;2023-04-09T08:36:32;102660.59;;;12.53;63.96
73457;BME280;61691;53.072;6.582;2023-04-09T08:39:01;102668.00;;;12.48;63.00
73457;BME280;61691;53.072;6.582;2023-04-09T08:41:28;102649.44;;;12.34;62.63
73457;BME280;61691;53.072;6.582;2023-04-09T08:43:55;102662.41;;;12.26;60.63
73457;BME280;61691;53.072;6.582;2023-04-09T08:46:25;102659.84;;;12.24;61.67
73457;BME280;61691;53.072;6.582;2023-04-09T08:48:52;102664.31;;;12.24;61.46
73457;BME280;61691;53.072;6.582;2023-04-09T08:51:22;102660.66;;;12.12;61.08
73457;BME280;61691;53.072;6.582;2023-04-09T08:53:59;102651.88;;;11.97;60.72
73457;BME280;61691;53.072;6.582;2023-04-09T08:56:30;102671.72;;;12.19;61.19
73457;BME280;61691;53.072;6.582;2023-04-09T08:58:57;102639.16;;;12.02;61.10
73457;BME280;61691;53.072;6.582;2023-04-09T09:01:27;102672.81;;;12.16;61.32
73457;BME280;61691;53.072;6.582;2023-04-09T09:04:01;102670.41;;;12.12;61.12
73457;BME280;61691;53.072;6.582;2023-04-09T09:06:36;102661.66;;;12.24;61.60
73457;BME280;61691;53.072;6.582;2023-04-09T09:11:33;102636.56;;;12.28;60.57
73457;BME280;61691;53.072;6.582;2023-04-09T09:14:07;102638.81;;;12.34;61.00
73457;BME280;61691;53.072;6.582;2023-04-09T09:16:35;102660.59;;;12.53;60.63
73457;BME280;61691;53.072;6.582;2023-04-09T09:19:05;102654.50;;;12.51;60.73
73457;BME280;61691;53.072;6.582;2023-04-09T09:21:32;102656.03;;;12.55;60.60
73457;BME280;61691;53.072;6.582;2023-04-09T09:24:00;102656.44;;;12.62;60.32
73457;BME280;61691;53.072;6.582;2023-04-09T09:26:29;102669.00;;;12.72;60.41
73457;BME280;61691;53.072;6.582;2023-04-09T09:28:56;102665.06;;;12.78;59.62
73457;BME280;61691;53.072;6.582;2023-04-09T09:31:26;102645.06;;;12.60;59.78
73457;BME280;61691;53.072;6.582;2023-04-09T09:33:53;102646.09;;;12.57;59.22
73457;BME280;61691;53.072;6.582;2023-04-09T09:36:33;102653.34;;;12.55;59.80
73457;BME280;61691;53.072;6.582;2023-04-09T09:39:01;102652.59;;;12.53;59.34
73457;BME280;61691;53.072;6.582;2023-04-09T09:41:30;102616.38;;;12.38;59.55
73457;BME280;61691;53.072;6.582;2023-04-09T09:43:57;102623.19;;;12.42;59.51
73457;BME280;61691;53.072;6.582;2023-04-09T09:46:24;102649.53;;;12.59;59.34
73457;BME280;61691;53.072;6.582;2023-04-09T09:48:52;102632.28;;;12.52;59.33
73457;BME280;61691;53.072;6.582;2023-04-09T09:51:21;102644.88;;;12.63;59.33
73457;BME280;61691;53.072;6.582;2023-04-09T09:53:54;102654.22;;;12.68;59.37
73457;BME280;61691;53.072;6.582;2023-04-09T09:56:22;102648.38;;;12.76;59.78
73457;BME280;61691;53.072;6.582;2023-04-09T09:59:06;102649.25;;;12.89;59.39
73457;BME280;61691;53.072;6.582;2023-04-09T10:01:33;102614.41;;;12.79;59.45
73457;BME280;61691;53.072;6.582;2023-04-09T10:04:04;102642.84;;;13.04;59.42
73457;BME280;61691;53.072;6.582;2023-04-09T10:06:32;102641.25;;;13.02;59.17
73457;BME280;61691;53.072;6.582;2023-04-09T10:09:04;102620.81;;;13.02;59.19
73457;BME280;61691;53.072;6.582;2023-04-09T10:11:35;102634.44;;;13.23;58.89
73457;BME280;61691;53.072;6.582;2023-04-09T10:14:03;102639.78;;;13.36;58.58
73457;BME280;61691;53.072;6.582;2023-04-09T10:16:31;102649.34;;;13.38;58.62
73457;BME280;61691;53.072;6.582;2023-04-09T10:18:59;102625.28;;;13.40;58.25
73457;BME280;61691;53.072;6.582;2023-04-09T10:21:35;102633.97;;;13.54;58.11
73457;BME280;61691;53.072;6.582;2023-04-09T10:24:06;102618.22;;;13.51;57.98
73457;BME280;61691;53.072;6.582;2023-04-09T10:26:35;102620.50;;;13.69;57.87
73457;BME280;61691;53.072;6.582;2023-04-09T10:29:07;102619.81;;;13.90;57.90
73457;BME280;61691;53.072;6.582;2023-04-09T10:32:03;102599.97;;;13.94;57.42
73457;BME280;61691;53.072;6.582;2023-04-09T10:34:34;102611.31;;;14.09;57.48
73457;BME280;61691;53.072;6.582;2023-04-09T10:37:01;102576.81;;;13.95;56.85
73457;BME280;61691;53.072;6.582;2023-04-09T10:39:31;102606.63;;;14.24;56.92
73457;BME280;61691;53.072;6.582;2023-04-09T10:42:11;102596.59;;;14.27;56.17
73457;BME280;61691;53.072;6.582;2023-04-09T10:44:39;102570.34;;;14.10;56.12
73457;BME280;61691;53.072;6.582;2023-04-09T10:47:08;102606.56;;;14.37;55.91
73457;BME280;61691;53.072;6.582;2023-04-09T10:49:37;102611.69;;;14.40;55.46
73457;BME280;61691;53.072;6.582;2023-04-09T10:52:09;102599.09;;;14.42;55.71
73457;BME280;61691;53.072;6.582;2023-04-09T10:54:45;102579.88;;;14.37;54.94
73457;BME280;61691;53.072;6.582;2023-04-09T10:57:13;102578.19;;;14.36;54.94
73457;BME280;61691;53.072;6.582;2023-04-09T10:59:49;102597.56;;;14.50;54.71
73457;BME280;61691;53.072;6.582;2023-04-09T11:03:05;102589.03;;;14.45;54.18
73457;BME280;61691;53.072;6.582;2023-04-09T11:05:36;102569.88;;;14.40;54.65
73457;BME280;61691;53.072;6.582;2023-04-09T11:08:06;102584.84;;;14.65;54.94
73457;BME280;61691;53.072;6.582;2023-04-09T11:10:36;102578.03;;;14.61;54.05
73457;BME280;61691;53.072;6.582;2023-04-09T11:13:03;102564.44;;;14.53;54.00
73457;BME280;61691;53.072;6.582;2023-04-09T11:15:33;102540.84;;;14.36;54.22
73457;BME280;61691;53.072;6.582;2023-04-09T11:18:00;102550.75;;;14.57;54.93
73457;BME280;61691;53.072;6.582;2023-04-09T11:20:28;102571.03;;;14.82;54.11
73457;BME280;61691;53.072;6.582;2023-04-09T11:22:57;102569.81;;;14.86;53.56
73457;BME280;61691;53.072;6.582;2023-04-09T11:25:26;102540.66;;;14.61;52.75
73457;BME280;61691;53.072;6.582;2023-04-09T11:27:53;102535.81;;;14.55;52.89
73457;BME280;61691;53.072;6.582;2023-04-09T11:30:20;102545.25;;;14.59;53.57
73457;BME280;61691;53.072;6.582;2023-04-09T11:32:48;102563.38;;;14.78;52.99
73457;BME280;61691;53.072;6.582;2023-04-09T11:35:19;102557.06;;;14.79;53.11
73457;BME280;61691;53.072;6.582;2023-04-09T11:37:47;102552.22;;;14.73;53.15
73457;BME280;61691;53.072;6.582;2023-04-09T11:40:17;102552.34;;;14.71;53.25
73457;BME280;61691;53.072;6.582;2023-04-09T11:42:45;102546.63;;;14.76;53.33
73457;BME280;61691;53.072;6.582;2023-04-09T11:45:14;102512.28;;;14.71;53.55
73457;BME280;61691;53.072;6.582;2023-04-09T11:47:42;102543.38;;;14.94;53.17
73457;BME280;61691;53.072;6.582;2023-04-09T11:50:10;102539.84;;;15.05;53.40
73457;BME280;61691;53.072;6.582;2023-04-09T11:52:37;102533.25;;;15.20;53.84
73457;BME280;61691;53.072;6.582;2023-04-09T11:55:06;102467.50;;;14.97;53.32
73457;BME280;61691;53.072;6.582;2023-04-09T12:00:16;102506.25;;;15.45;51.93
73457;BME280;61691;53.072;6.582;2023-04-09T12:02:57;102528.84;;;15.53;50.31
73457;BME280;61691;53.072;6.582;2023-04-09T12:05:28;102529.00;;;15.40;50.71
73457;BME280;61691;53.072;6.582;2023-04-09T12:08:02;102529.47;;;15.34;50.56
73457;BME280;61691;53.072;6.582;2023-04-09T12:10:35;102505.69;;;15.20;50.85
73457;BME280;61691;53.072;6.582;2023-04-09T12:13:07;102513.25;;;15.26;51.18
73457;BME280;61691;53.072;6.582;2023-04-09T12:15:37;102531.91;;;15.37;50.68
73457;BME280;61691;53.072;6.582;2023-04-09T12:18:07;102533.00;;;15.34;50.24
73457;BME280;61691;53.072;6.582;2023-04-09T12:20:35;102527.81;;;15.33;50.21
73457;BME280;61691;53.072;6.582;2023-04-09T12:23:03;102524.88;;;15.36;50.38
73457;BME280;61691;53.072;6.582;2023-04-09T12:25:32;102529.94;;;15.50;50.25
73457;BME280;61691;53.072;6.582;2023-04-09T12:27:59;102498.88;;;15.27;49.11
73457;BME280;61691;53.072;6.582;2023-04-09T12:30:26;102509.94;;;15.33;49.60
73457;BME280;61691;53.072;6.582;2023-04-09T12:32:53;102524.97;;;15.34;49.29
73457;BME280;61691;53.072;6.582;2023-04-09T12:35:21;102418.13;;;14.69;48.58
73457;BME280;61691;53.072;6.582;2023-04-09T12:37:49;102515.91;;;15.26;49.47
73457;BME280;61691;53.072;6.582;2023-04-09T12:40:17;102518.59;;;15.15;49.32
73457;BME280;61691;53.072;6.582;2023-04-09T12:42:44;102525.88;;;15.13;49.45
73457;BME280;61691;53.072;6.582;2023-04-09T12:45:13;102517.63;;;15.04;49.14
73457;BME280;61691;53.072;6.582;2023-04-09T12:47:42;102472.72;;;14.76;49.70
73457;BME280;61691;53.072;6.582;2023-04-09T12:50:10;102495.53;;;14.91;49.53
73457;BME280;61691;53.072;6.582;2023-04-09T12:52:37;102481.59;;;14.88;49.91
73457;BME280;61691;53.072;6.582;2023-04-09T12:55:04;102509.13;;;14.99;50.28
73457;BME280;61691;53.072;6.582;2023-04-09T12:57:31;102514.25;;;15.02;50.00
73457;BME280;61691;53.072;6.582;2023-04-09T12:59:58;102491.91;;;14.92;49.68
73457;BME280;61691;53.072;6.582;2023-04-09T13:02:25;102479.78;;;14.88;49.34
73457;BME280;61691;53.072;6.582;2023-04-09T13:04:52;102476.38;;;14.86;48.94
73457;BME280;61691;53.072;6.582;2023-04-09T13:07:19;102489.47;;;15.00;48.66
73457;BME280;61691;53.072;6.582;2023-04-09T13:09:47;102504.25;;;15.16;48.22
73457;BME280;61691;53.072;6.582;2023-04-09T13:12:16;102496.97;;;15.18;47.77